sensor_id;sensor_type;location;lat;lon;timestamp;pressure;altitude;pressure_sealevel;temperature;humidity
69836;BME280;57132;51.972;4.450;2023-02-01T00:01:22;101967.69;;;5.78;97.73
69836;BME280;57132;51.972;4.450;2023-02-01T00:03:48;101979.94;;;5.82;97.38
69836;BME280;57132;51.972;4.450;2023-02-01T00:06:13;101981.69;;;5.83;97.00
69836;BME280;57132;51.972;4.450;2023-02-01T00:08:38;101977.41;;;5.79;96.69
69836;BME280;57132;51.972;4.450;2023-02-01T00:11:09;101977.44;;;5.77;96.29
69836;BME280;57132;51.972;4.450;2023-02-01T00:13:37;101989.97;;;5.72;96.67
69836;BME280;57132;51.972;4.450;2023-02-01T00:16:08;101991.75;;;5.72;97.07
69836;BME280;57132;51.972;4.450;2023-02-01T00:18:33;101992.78;;;5.67;96.96
69836;BME280;57132;51.972;4.450;2023-02-01T00:20:59;101982.31;;;5.63;97.09
69836;BME280;57132;51.972;4.450;2023-02-01T00:23:25;101990.38;;;5.60;97.04
69836;BME280;57132;51.972;4.450;2023-02-01T00:25:51;101986.75;;;5.62;96.12
69836;BME280;57132;51.972;4.450;2023-02-01T00:28:16;101985.69;;;5.68;95.49
69836;BME280;57132;51.972;4.450;2023-02-01T00:30:41;101987.06;;;5.80;94.25
69836;BME280;57132;51.972;4.450;2023-02-01T00:33:07;101983.56;;;5.79;94.08
69836;BME280;57132;51.972;4.450;2023-02-01T00:35:34;101975.66;;;5.78;94.30
69836;BME280;57132;51.972;4.450;2023-02-01T00:38:00;101974.78;;;5.77;94.14
69836;BME280;57132;51.972;4.450;2023-02-01T00:40:26;101980.81;;;5.82;93.91
69836;BME280;57132;51.972;4.450;2023-02-01T00:42:51;101979.03;;;5.83;93.83
69836;BME280;57132;51.972;4.450;2023-02-01T00:45:17;101977.25;;;5.83;93.75
69836;BME280;57132;51.972;4.450;2023-02-01T00:47:42;101981.72;;;5.81;93.99
69836;BME280;57132;51.972;4.450;2023-02-01T00:50:09;101971.13;;;5.81;94.24
69836;BME280;57132;51.972;4.450;2023-02-01T00:52:35;101971.13;;;5.81;94.07
69836;BME280;57132;51.972;4.450;2023-02-01T00:55:00;101965.88;;;5.80;94.29
69836;BME280;57132;51.972;4.450;2023-02-01T00:57:25;101956.13;;;5.80;94.86
69836;BME280;57132;51.972;4.450;2023-02-01T00:59:51;101963.22;;;5.80;95.21
69836;BME280;57132;51.972;4.450;2023-02-01T01:02:16;101964.25;;;5.76;95.71
69836;BME280;57132;51.972;4.450;2023-02-01T01:04:43;101961.66;;;5.74;96.40
69836;BME280;57132;51.972;4.450;2023-02-01T01:07:08;101951.16;;;5.71;96.74
69836;BME280;57132;51.972;4.450;2023-02-01T01:09:34;101948.44;;;5.73;97.15
69836;BME280;57132;51.972;4.450;2023-02-01T01:11:59;101949.22;;;5.76;97.35
69836;BME280;57132;51.972;4.450;2023-02-01T01:14:29;101947.34;;;5.80;97.55
69836;BME280;57132;51.972;4.450;2023-02-01T01:16:54;101957.09;;;5.78;98.35
69836;BME280;57132;51.972;4.450;2023-02-01T01:19:19;101966.81;;;5.79;98.71
69836;BME280;57132;51.972;4.450;2023-02-01T01:21:45;101958.72;;;5.82;99.12
69836;BME280;57132;51.972;4.450;2023-02-01T01:24:10;101956.72;;;5.90;99.34
69836;BME280;57132;51.972;4.450;2023-02-01T01:26:36;101957.22;;;6.01;98.71
69836;BME280;57132;51.972;4.450;2023-02-01T01:29:01;101967.69;;;6.06;98.72
69836;BME280;57132;51.972;4.450;2023-02-01T01:31:27;101950.09;;;6.03;98.84
69836;BME280;57132;51.972;4.450;2023-02-01T01:33:54;101953.47;;;6.08;98.85
69836;BME280;57132;51.972;4.450;2023-02-01T01:36:20;101956.22;;;6.05;99.11
69836;BME280;57132;51.972;4.450;2023-02-01T01:38:46;101959.78;;;6.04;99.21
69836;BME280;57132;51.972;4.450;2023-02-01T01:41:26;101960.81;;;6.00;99.61
69836;BME280;57132;51.972;4.450;2023-02-01T01:44:04;101957.38;;;5.97;99.72
69836;BME280;57132;51.972;4.450;2023-02-01T01:49:09;101965.41;;;5.95;99.87
69836;BME280;57132;51.972;4.450;2023-02-01T01:51:46;101963.63;;;5.96;100.00
69836;BME280;57132;51.972;4.450;2023-02-01T01:54:17;101955.72;;;5.94;100.00
69836;BME280;57132;51.972;4.450;2023-02-01T01:56:50;101970.59;;;5.98;100.00
69836;BME280;57132;51.972;4.450;2023-02-01T01:59:17;101958.31;;;5.96;100.00
69836;BME280;57132;51.972;4.450;2023-02-01T02:01:43;101956.53;;;5.96;100.00
69836;BME280;57132;51.972;4.450;2023-02-01T02:04:09;101955.59;;;5.97;100.00
69836;BME280;57132;51.972;4.450;2023-02-01T02:06:45;101949.44;;;5.97;100.00
69836;BME280;57132;51.972;4.450;2023-02-01T02:09:14;101945.13;;;5.94;100.00
69836;BME280;57132;51.972;4.450;2023-02-01T02:11:40;101945.88;;;5.98;100.00
69836;BME280;57132;51.972;4.450;2023-02-01T02:14:08;101943.97;;;6.01;100.00
69836;BME280;57132;51.972;4.450;2023-02-01T02:33:36;101926.34;;;6.00;100.00
69836;BME280;57132;51.972;4.450;2023-02-01T02:41:19;101925.56;;;5.98;100.00
69836;BME280;57132;51.972;4.450;2023-02-01T02:50:44;101941.34;;;6.01;100.00
69836;BME280;57132;51.972;4.450;2023-02-01T02:53:38;101934.13;;;6.05;100.00
69836;BME280;57132;51.972;4.450;2023-02-01T02:56:24;101930.53;;;6.07;100.00
69836;BME280;57132;51.972;4.450;2023-02-01T02:59:12;101932.41;;;6.04;100.00
69836;BME280;57132;51.972;4.450;2023-02-01T03:01:58;101928.91;;;6.03;100.00
69836;BME280;57132;51.972;4.450;2023-02-01T03:04:42;101914.72;;;6.04;100.00
69836;BME280;57132;51.972;4.450;2023-02-01T03:10:29;101900.78;;;5.99;100.00
69836;BME280;57132;51.972;4.450;2023-02-01T03:13:05;101888.50;;;5.97;100.00
69836;BME280;57132;51.972;4.450;2023-02-01T03:15:33;101889.53;;;5.93;100.00
69836;BME280;57132;51.972;4.450;2023-02-01T03:18:02;101886.06;;;5.89;100.00
69836;BME280;57132;51.972;4.450;2023-02-01T03:20:31;101887.94;;;5.87;100.00
69836;BME280;57132;51.972;4.450;2023-02-01T03:22:58;101891.69;;;5.80;100.00
69836;BME280;57132;51.972;4.450;2023-02-01T03:25:30;101886.50;;;5.77;100.00
69836;BME280;57132;51.972;4.450;2023-02-01T03:28:02;101891.88;;;5.74;100.00
69836;BME280;57132;51.972;4.450;2023-02-01T03:30:34;101888.63;;;5.65;100.00
69836;BME280;57132;51.972;4.450;2023-02-01T03:33:05;101897.41;;;5.67;100.00
69836;BME280;57132;51.972;4.450;2023-02-01T03:35:54;101893.03;;;5.66;100.00
69836;BME280;57132;51.972;4.450;2023-02-01T03:38:40;101886.06;;;5.64;100.00
69836;BME280;57132;51.972;4.450;2023-02-01T03:43:42;101899.97;;;5.71;100.00
69836;BME280;57132;51.972;4.450;2023-02-01T03:46:17;101898.19;;;5.71;100.00
69836;BME280;57132;51.972;4.450;2023-02-01T03:48:46;101889.38;;;5.71;100.00
69836;BME280;57132;51.972;4.450;2023-02-01T03:51:13;101887.63;;;5.70;100.00
69836;BME280;57132;51.972;4.450;2023-02-01T03:53:40;101888.59;;;5.67;100.00
69836;BME280;57132;51.972;4.450;2023-02-01T03:56:07;101893.06;;;5.65;100.00
69836;BME280;57132;51.972;4.450;2023-02-01T03:58:34;101892.22;;;5.64;100.00
69836;BME280;57132;51.972;4.450;2023-02-01T04:01:00;101887.78;;;5.65;100.00
69836;BME280;57132;51.972;4.450;2023-02-01T04:03:27;101905.34;;;5.67;100.00
69836;BME280;57132;51.972;4.450;2023-02-01T04:05:53;101890.06;;;5.76;99.27
69836;BME280;57132;51.972;4.450;2023-02-01T04:08:22;101895.38;;;5.76;98.74
69836;BME280;57132;51.972;4.450;2023-02-01T04:10:48;101891.00;;;5.75;98.99
69836;BME280;57132;51.972;4.450;2023-02-01T04:13:13;101902.63;;;5.71;99.07
69836;BME280;57132;51.972;4.450;2023-02-01T04:15:39;101898.94;;;5.75;99.13
69836;BME280;57132;51.972;4.450;2023-02-01T04:18:04;101897.06;;;5.78;99.59
69836;BME280;57132;51.972;4.450;2023-02-01T04:20:30;101890.66;;;5.84;99.68
69836;BME280;57132;51.972;4.450;2023-02-01T04:22:55;101901.09;;;5.88;99.62
69836;BME280;57132;51.972;4.450;2023-02-01T04:25:21;101895.81;;;5.88;100.00
69836;BME280;57132;51.972;4.450;2023-02-01T04:27:46;101897.47;;;5.93;99.52
69836;BME280;57132;51.972;4.450;2023-02-01T04:30:12;101893.78;;;5.97;99.11
69836;BME280;57132;51.972;4.450;2023-02-01T04:32:39;101892.88;;;5.98;99.33
69836;BME280;57132;51.972;4.450;2023-02-01T04:35:05;101907.91;;;5.97;99.58
69836;BME280;57132;51.972;4.450;2023-02-01T04:37:30;101906.13;;;5.98;99.95
69836;BME280;57132;51.972;4.450;2023-02-01T04:39:56;101892.00;;;5.97;100.00
69836;BME280;57132;51.972;4.450;2023-02-01T04:42:21;101891.09;;;5.98;99.85
69836;BME280;57132;51.972;4.450;2023-02-01T04:44:46;101900.78;;;5.99;99.86
69836;BME280;57132;51.972;4.450;2023-02-01T04:47:12;101898.03;;;6.02;99.67
69836;BME280;57132;51.972;4.450;2023-02-01T04:49:38;101887.19;;;6.08;99.62
69836;BME280;57132;51.972;4.450;2023-02-01T04:52:03;101885.47;;;6.07;99.50
69836;BME280;57132;51.972;4.450;2023-02-01T04:54:32;101881.13;;;6.05;99.74
69836;BME280;57132;51.972;4.450;2023-02-01T04:56:57;101892.84;;;5.99;99.86
69836;BME280;57132;51.972;4.450;2023-02-01T04:59:22;101883.25;;;5.95;100.00
69836;BME280;57132;51.972;4.450;2023-02-01T05:01:48;101866.72;;;5.87;100.00
69836;BME280;57132;51.972;4.450;2023-02-01T05:04:13;101879.25;;;5.82;100.00
69836;BME280;57132;51.972;4.450;2023-02-01T05:06:38;101879.47;;;5.76;100.00
69836;BME280;57132;51.972;4.450;2023-02-01T05:09:04;101883.19;;;5.70;100.00
69836;BME280;57132;51.972;4.450;2023-02-01T05:11:29;101882.44;;;5.66;100.00
69836;BME280;57132;51.972;4.450;2023-02-01T05:14:13;101881.84;;;5.58;100.00
69836;BME280;57132;51.972;4.450;2023-02-01T05:16:39;101887.31;;;5.52;100.00
69836;BME280;57132;51.972;4.450;2023-02-01T05:19:04;101895.34;;;5.49;100.00
69836;BME280;57132;51.972;4.450;2023-02-01T05:21:30;101905.94;;;5.49;100.00
69836;BME280;57132;51.972;4.450;2023-02-01T05:23:55;101903.53;;;5.43;100.00
69836;BME280;57132;51.972;4.450;2023-02-01T05:26:38;101902.69;;;5.41;100.00
69836;BME280;57132;51.972;4.450;2023-02-01T05:29:06;101902.66;;;5.42;100.00
69836;BME280;57132;51.972;4.450;2023-02-01T05:31:34;101914.09;;;5.43;100.00
69836;BME280;57132;51.972;4.450;2023-02-01T05:33:59;101894.34;;;5.53;100.00
69836;BME280;57132;51.972;4.450;2023-02-01T05:36:25;101895.31;;;5.51;100.00
69836;BME280;57132;51.972;4.450;2023-02-01T05:38:50;101894.50;;;5.49;100.00
69836;BME280;57132;51.972;4.450;2023-02-01T05:41:16;101885.75;;;5.47;100.00
69836;BME280;57132;51.972;4.450;2023-02-01T05:43:41;101895.44;;;5.46;100.00
69836;BME280;57132;51.972;4.450;2023-02-01T05:46:06;101895.44;;;5.46;100.00
69836;BME280;57132;51.972;4.450;2023-02-01T05:48:33;101899.00;;;5.47;100.00
69836;BME280;57132;51.972;4.450;2023-02-01T05:50:58;101899.88;;;5.46;100.00
69836;BME280;57132;51.972;4.450;2023-02-01T05:53:23;101893.72;;;5.45;100.00
69836;BME280;57132;51.972;4.450;2023-02-01T05:55:49;101901.56;;;5.48;100.00
69836;BME280;57132;51.972;4.450;2023-02-01T05:58:14;101904.16;;;5.50;100.00
69836;BME280;57132;51.972;4.450;2023-02-01T06:00:40;101920.91;;;5.50;100.00
69836;BME280;57132;51.972;4.450;2023-02-01T06:03:05;101911.25;;;5.49;100.00
69836;BME280;57132;51.972;4.450;2023-02-01T06:05:31;101909.59;;;5.47;100.00
69836;BME280;57132;51.972;4.450;2023-02-01T06:07:56;101925.34;;;5.50;100.00
69836;BME280;57132;51.972;4.450;2023-02-01T06:10:22;101928.91;;;5.49;100.00
69836;BME280;57132;51.972;4.450;2023-02-01T06:12:47;101912.09;;;5.50;100.00
69836;BME280;57132;51.972;4.450;2023-02-01T06:15:13;101916.38;;;5.54;100.00
69836;BME280;57132;51.972;4.450;2023-02-01T06:17:41;101916.44;;;5.52;100.00
69836;BME280;57132;51.972;4.450;2023-02-01T06:20:08;101915.53;;;5.53;100.00
69836;BME280;57132;51.972;4.450;2023-02-01T06:22:34;101908.59;;;5.49;100.00
69836;BME280;57132;51.972;4.450;2023-02-01T06:25:04;101912.97;;;5.50;100.00
69836;BME280;57132;51.972;4.450;2023-02-01T06:27:30;101915.63;;;5.50;100.00
69836;BME280;57132;51.972;4.450;2023-02-01T06:29:56;101916.34;;;5.55;100.00
69836;BME280;57132;51.972;4.450;2023-02-01T06:32:21;101914.56;;;5.56;100.00
69836;BME280;57132;51.972;4.450;2023-02-01T06:34:48;101908.31;;;5.58;100.00
69836;BME280;57132;51.972;4.450;2023-02-01T06:37:13;101909.94;;;5.62;100.00
69836;BME280;57132;51.972;4.450;2023-02-01T06:39:39;101910.50;;;5.72;100.00
69836;BME280;57132;51.972;4.450;2023-02-01T06:42:04;101911.44;;;5.70;100.00
69836;BME280;57132;51.972;4.450;2023-02-01T06:44:29;101917.63;;;5.70;100.00
69836;BME280;57132;51.972;4.450;2023-02-01T06:46:55;101915.94;;;5.67;100.00
69836;BME280;57132;51.972;4.450;2023-02-01T06:49:21;101915.97;;;5.66;100.00
69836;BME280;57132;51.972;4.450;2023-02-01T06:51:46;101906.38;;;5.63;100.00
69836;BME280;57132;51.972;4.450;2023-02-01T06:54:12;101901.00;;;5.65;100.00
69836;BME280;57132;51.972;4.450;2023-02-01T06:56:37;101911.59;;;5.65;100.00
69836;BME280;57132;51.972;4.450;2023-02-01T06:59:05;101902.50;;;5.74;100.00
69836;BME280;57132;51.972;4.450;2023-02-01T07:01:30;101914.78;;;5.76;100.00
69836;BME280;57132;51.972;4.450;2023-02-01T07:03:55;101912.22;;;5.73;100.00
69836;BME280;57132;51.972;4.450;2023-02-01T07:06:21;101904.19;;;5.76;100.00
69836;BME280;57132;51.972;4.450;2023-02-01T07:08:46;101903.41;;;5.73;100.00
69836;BME280;57132;51.972;4.450;2023-02-01T07:11:13;101917.69;;;5.68;100.00
69836;BME280;57132;51.972;4.450;2023-02-01T07:13:39;101923.81;;;5.71;100.00
69836;BME280;57132;51.972;4.450;2023-02-01T07:16:07;101918.50;;;5.71;100.00
69836;BME280;57132;51.972;4.450;2023-02-01T07:18:34;101916.72;;;5.71;100.00
69836;BME280;57132;51.972;4.450;2023-02-01T07:20:59;101916.56;;;5.76;100.00
69836;BME280;57132;51.972;4.450;2023-02-01T07:23:25;101915.69;;;5.75;100.00
69836;BME280;57132;51.972;4.450;2023-02-01T07:25:59;101924.59;;;5.73;100.00
69836;BME280;57132;51.972;4.450;2023-02-01T07:28:25;101928.19;;;5.72;100.00
69836;BME280;57132;51.972;4.450;2023-02-01T07:30:51;101922.03;;;5.70;100.00
69836;BME280;57132;51.972;4.450;2023-02-01T07:33:21;101920.31;;;5.68;100.00
69836;BME280;57132;51.972;4.450;2023-02-01T07:35:48;101924.81;;;5.66;100.00
69836;BME280;57132;51.972;4.450;2023-02-01T07:38:14;101922.22;;;5.65;100.00
69836;BME280;57132;51.972;4.450;2023-02-01T07:40:40;101935.34;;;5.68;100.00
69836;BME280;57132;51.972;4.450;2023-02-01T07:43:05;101942.53;;;5.64;100.00
69836;BME280;57132;51.972;4.450;2023-02-01T07:45:33;101948.75;;;5.63;100.00
69836;BME280;57132;51.972;4.450;2023-02-01T07:47:59;101955.69;;;5.67;100.00
69836;BME280;57132;51.972;4.450;2023-02-01T07:50:24;101961.78;;;5.70;100.00
69836;BME280;57132;51.972;4.450;2023-02-01T07:52:49;101963.38;;;5.75;100.00
69836;BME280;57132;51.972;4.450;2023-02-01T07:55:15;101962.53;;;5.75;100.00
69836;BME280;57132;51.972;4.450;2023-02-01T07:57:40;101954.44;;;5.78;100.00
69836;BME280;57132;51.972;4.450;2023-02-01T08:00:07;101967.66;;;5.79;100.00
69836;BME280;57132;51.972;4.450;2023-02-01T08:02:51;101954.34;;;5.81;100.00
69836;BME280;57132;51.972;4.450;2023-02-01T08:05:17;101956.06;;;5.82;100.00
69836;BME280;57132;51.972;4.450;2023-02-01T08:07:42;101958.72;;;5.82;100.00
69836;BME280;57132;51.972;4.450;2023-02-01T08:10:08;101961.28;;;5.85;100.00
69836;BME280;57132;51.972;4.450;2023-02-01T08:12:36;101957.63;;;5.89;100.00
69836;BME280;57132;51.972;4.450;2023-02-01T08:15:03;101944.22;;;5.95;100.00
69836;BME280;57132;51.972;4.450;2023-02-01T08:17:29;101951.22;;;5.96;100.00
69836;BME280;57132;51.972;4.450;2023-02-01T08:19:54;101942.19;;;6.02;100.00
69836;BME280;57132;51.972;4.450;2023-02-01T08:22:20;101940.22;;;6.08;100.00
69836;BME280;57132;51.972;4.450;2023-02-01T08:24:47;101945.31;;;6.14;100.00
69836;BME280;57132;51.972;4.450;2023-02-01T08:27:13;101938.16;;;6.16;100.00
69836;BME280;57132;51.972;4.450;2023-02-01T08:29:39;101940.00;;;6.14;100.00
69836;BME280;57132;51.972;4.450;2023-02-01T08:32:04;101935.56;;;6.15;100.00
69836;BME280;57132;51.972;4.450;2023-02-01T08:34:30;101931.94;;;6.18;100.00
69836;BME280;57132;51.972;4.450;2023-02-01T08:36:55;101923.97;;;6.18;100.00
69836;BME280;57132;51.972;4.450;2023-02-01T08:39:24;101920.47;;;6.17;100.00
69836;BME280;57132;51.972;4.450;2023-02-01T08:41:50;101933.50;;;6.23;100.00
69836;BME280;57132;51.972;4.450;2023-02-01T08:44:39;101928.03;;;6.28;100.00
69836;BME280;57132;51.972;4.450;2023-02-01T08:47:04;101924.28;;;6.33;100.00
69836;BME280;57132;51.972;4.450;2023-02-01T08:49:30;101927.50;;;6.43;100.00
69836;BME280;57132;51.972;4.450;2023-02-01T08:51:55;101930.84;;;6.48;100.00
69836;BME280;57132;51.972;4.450;2023-02-01T08:54:22;101929.81;;;6.52;100.00
69836;BME280;57132;51.972;4.450;2023-02-01T08:56:48;101921.81;;;6.54;100.00
69836;BME280;57132;51.972;4.450;2023-02-01T08:59:13;101921.56;;;6.60;100.00
69836;BME280;57132;51.972;4.450;2023-02-01T09:01:38;101911.72;;;6.63;100.00
69836;BME280;57132;51.972;4.450;2023-02-01T09:04:04;101907.16;;;6.67;100.00
69836;BME280;57132;51.972;4.450;2023-02-01T09:06:30;101895.41;;;6.74;100.00
69836;BME280;57132;51.972;4.450;2023-02-01T09:08:57;101901.28;;;6.82;99.60
69836;BME280;57132;51.972;4.450;2023-02-01T09:11:22;101889.91;;;6.79;99.41
69836;BME280;57132;51.972;4.450;2023-02-01T09:13:48;101890.72;;;6.81;99.57
69836;BME280;57132;51.972;4.450;2023-02-01T09:16:14;101897.69;;;6.83;99.82
69836;BME280;57132;51.972;4.450;2023-02-01T09:18:41;101902.94;;;6.85;98.65
69836;BME280;57132;51.972;4.450;2023-02-01T09:21:06;101893.63;;;6.97;98.21
69836;BME280;57132;51.972;4.450;2023-02-01T09:23:33;101897.03;;;7.00;98.39
69836;BME280;57132;51.972;4.450;2023-02-01T09:26:00;101912.75;;;7.06;97.94
69836;BME280;57132;51.972;4.450;2023-02-01T09:28:25;101896.69;;;7.09;97.06
69836;BME280;57132;51.972;4.450;2023-02-01T09:30:58;101902.31;;;7.02;96.61
69836;BME280;57132;51.972;4.450;2023-02-01T09:33:26;101912.28;;;6.95;96.04
69836;BME280;57132;51.972;4.450;2023-02-01T09:35:56;101913.03;;;6.99;96.48
69836;BME280;57132;51.972;4.450;2023-02-01T09:38:21;101915.00;;;6.94;96.58
69836;BME280;57132;51.972;4.450;2023-02-01T09:40:47;101921.69;;;7.04;96.47
69836;BME280;57132;51.972;4.450;2023-02-01T09:43:55;101914.44;;;7.09;95.93
69836;BME280;57132;51.972;4.450;2023-02-01T09:46:33;101927.75;;;7.07;95.45
69836;BME280;57132;51.972;4.450;2023-02-01T09:49:04;101922.44;;;7.07;94.21
69836;BME280;57132;51.972;4.450;2023-02-01T09:51:35;101924.16;;;7.08;94.80
69836;BME280;57132;51.972;4.450;2023-02-01T09:54:12;101936.72;;;7.05;94.96
69836;BME280;57132;51.972;4.450;2023-02-01T09:59:33;101933.53;;;6.95;95.45
69836;BME280;57132;51.972;4.450;2023-02-01T10:02:08;101938.19;;;6.88;95.50
69836;BME280;57132;51.972;4.450;2023-02-01T10:04:36;101930.38;;;6.85;96.05
69836;BME280;57132;51.972;4.450;2023-02-01T10:10:40;101920.72;;;6.83;97.75
69836;BME280;57132;51.972;4.450;2023-02-01T10:21:22;101945.72;;;6.77;97.16
69836;BME280;57132;51.972;4.450;2023-02-01T10:24:01;101948.41;;;6.76;97.21
69836;BME280;57132;51.972;4.450;2023-02-01T10:26:33;101935.97;;;6.78;98.29
69836;BME280;57132;51.972;4.450;2023-02-01T10:29:02;101936.00;;;6.76;99.67
69836;BME280;57132;51.972;4.450;2023-02-01T10:31:34;101936.81;;;6.78;100.00
69836;BME280;57132;51.972;4.450;2023-02-01T10:34:10;101936.66;;;6.83;100.00
69836;BME280;57132;51.972;4.450;2023-02-01T10:36:52;101928.50;;;6.87;100.00
69836;BME280;57132;51.972;4.450;2023-02-01T10:39:18;101925.75;;;6.90;99.31
69836;BME280;57132;51.972;4.450;2023-02-01T10:41:44;101920.13;;;6.98;97.92
69836;BME280;57132;51.972;4.450;2023-02-01T10:44:18;101916.56;;;6.99;97.97
69836;BME280;57132;51.972;4.450;2023-02-01T10:46:45;101927.09;;;7.01;98.29
69836;BME280;57132;51.972;4.450;2023-02-01T10:49:18;101923.28;;;7.08;98.36
69836;BME280;57132;51.972;4.450;2023-02-01T10:52:38;101905.22;;;7.18;97.74
69836;BME280;57132;51.972;4.450;2023-02-01T10:55:35;101901.34;;;7.26;96.96
69836;BME280;57132;51.972;4.450;2023-02-01T10:58:13;101911.69;;;7.32;96.44
69836;BME280;57132;51.972;4.450;2023-02-01T11:00:46;101908.19;;;7.32;95.96
69836;BME280;57132;51.972;4.450;2023-02-01T11:05:56;101915.81;;;7.41;96.12
69836;BME280;57132;51.972;4.450;2023-02-01T11:08:21;101919.31;;;7.42;95.43
69836;BME280;57132;51.972;4.450;2023-02-01T11:10:48;101918.38;;;7.43;95.43
69836;BME280;57132;51.972;4.450;2023-02-01T11:13:29;101910.09;;;7.50;95.68
69836;BME280;57132;51.972;4.450;2023-02-01T11:15:55;101911.72;;;7.54;95.72
69836;BME280;57132;51.972;4.450;2023-02-01T11:18:28;101909.06;;;7.54;95.09
69836;BME280;57132;51.972;4.450;2023-02-01T11:20:54;101900.53;;;7.46;94.74
69836;BME280;57132;51.972;4.450;2023-02-01T11:23:28;101904.34;;;7.39;95.81
69836;BME280;57132;51.972;4.450;2023-02-01T11:25:57;101901.59;;;7.42;95.84
69836;BME280;57132;51.972;4.450;2023-02-01T11:28:33;101900.97;;;7.35;95.55
69836;BME280;57132;51.972;4.450;2023-02-01T11:31:03;101907.13;;;7.36;96.01
69836;BME280;57132;51.972;4.450;2023-02-01T11:33:32;101900.97;;;7.35;96.11
69836;BME280;57132;51.972;4.450;2023-02-01T11:36:06;101908.94;;;7.35;96.75
69836;BME280;57132;51.972;4.450;2023-02-01T11:38:33;101905.41;;;7.35;96.79
69836;BME280;57132;51.972;4.450;2023-02-01T11:41:14;101908.88;;;7.37;96.63
69836;BME280;57132;51.972;4.450;2023-02-01T11:44:00;101905.28;;;7.38;96.65
69836;BME280;57132;51.972;4.450;2023-02-01T11:46:31;101918.56;;;7.38;96.49
69836;BME280;57132;51.972;4.450;2023-02-01T11:48:57;101900.84;;;7.38;96.33
69836;BME280;57132;51.972;4.450;2023-02-01T11:57:06;101917.00;;;7.32;96.46
69836;BME280;57132;51.972;4.450;2023-02-01T11:59:48;101909.97;;;7.31;95.70
69836;BME280;57132;51.972;4.450;2023-02-01T12:05:27;101905.66;;;7.29;96.38
69836;BME280;57132;51.972;4.450;2023-02-01T12:11:10;101894.31;;;7.25;96.56
69836;BME280;57132;51.972;4.450;2023-02-01T12:13:51;101907.63;;;7.24;97.13
69836;BME280;57132;51.972;4.450;2023-02-01T12:16:47;101905.13;;;7.21;97.46
69836;BME280;57132;51.972;4.450;2023-02-01T12:28:04;101883.13;;;7.17;96.75
69836;BME280;57132;51.972;4.450;2023-02-01T12:41:52;101893.47;;;7.87;92.40
69836;BME280;57132;51.972;4.450;2023-02-01T12:47:21;101890.44;;;7.54;95.13
69836;BME280;57132;51.972;4.450;2023-02-01T12:57:43;101897.13;;;7.64;94.76
69836;BME280;57132;51.972;4.450;2023-02-01T13:00:27;101891.84;;;7.63;94.79
69836;BME280;57132;51.972;4.450;2023-02-01T13:03:17;101886.00;;;7.55;95.02
69836;BME280;57132;51.972;4.450;2023-02-01T13:05:55;101892.13;;;7.57;95.81
69836;BME280;57132;51.972;4.450;2023-02-01T13:08:36;101882.59;;;7.51;95.72
69836;BME280;57132;51.972;4.450;2023-02-01T13:11:10;101882.06;;;7.43;96.78
69836;BME280;57132;51.972;4.450;2023-02-01T13:13:48;101882.00;;;7.45;97.13
69836;BME280;57132;51.972;4.450;2023-02-01T13:16:28;101866.53;;;7.54;96.97
69836;BME280;57132;51.972;4.450;2023-02-01T13:19:17;101888.97;;;7.69;96.59
69836;BME280;57132;51.972;4.450;2023-02-01T13:21:50;101896.06;;;7.69;96.08
69836;BME280;57132;51.972;4.450;2023-02-01T13:26:59;101877.78;;;7.61;96.07
69836;BME280;57132;51.972;4.450;2023-02-01T13:29:28;101888.41;;;7.61;96.84
69836;BME280;57132;51.972;4.450;2023-02-01T13:32:41;101893.72;;;7.61;97.31
69836;BME280;57132;51.972;4.450;2023-02-01T13:41:24;101879.16;;;7.49;97.98
69836;BME280;57132;51.972;4.450;2023-02-01T13:44:04;101886.28;;;7.49;98.39
69836;BME280;57132;51.972;4.450;2023-02-01T13:46:40;101891.63;;;7.47;98.54
69836;BME280;57132;51.972;4.450;2023-02-01T13:49:06;101875.03;;;7.42;98.87
69836;BME280;57132;51.972;4.450;2023-02-01T13:51:40;101878.47;;;7.44;99.06
69836;BME280;57132;51.972;4.450;2023-02-01T13:54:06;101895.41;;;7.42;99.48
69836;BME280;57132;51.972;4.450;2023-02-01T13:56:40;101880.41;;;7.41;99.53
69836;BME280;57132;51.972;4.450;2023-02-01T14:05:12;101878.41;;;7.46;100.00
69836;BME280;57132;51.972;4.450;2023-02-01T14:13:35;101878.63;;;7.41;100.00
69836;BME280;57132;51.972;4.450;2023-02-01T14:21:46;101882.25;;;7.38;100.00
69836;BME280;57132;51.972;4.450;2023-02-01T14:24:22;101882.31;;;7.37;100.00
69836;BME280;57132;51.972;4.450;2023-02-01T14:26:51;101877.91;;;7.36;100.00
69836;BME280;57132;51.972;4.450;2023-02-01T14:32:14;101869.63;;;7.44;100.00
69836;BME280;57132;51.972;4.450;2023-02-01T14:39:55;101869.63;;;7.44;100.00
69836;BME280;57132;51.972;4.450;2023-02-01T14:53:20;101876.63;;;7.46;100.00
69836;BME280;57132;51.972;4.450;2023-02-01T15:01:16;101889.16;;;7.43;100.00
69836;BME280;57132;51.972;4.450;2023-02-01T15:03:53;101884.81;;;7.40;100.00
69836;BME280;57132;51.972;4.450;2023-02-01T15:06:24;101877.59;;;7.44;100.00
69836;BME280;57132;51.972;4.450;2023-02-01T15:08:57;101890.03;;;7.43;100.00
69836;BME280;57132;51.972;4.450;2023-02-01T15:11:23;101897.00;;;7.46;100.00
69836;BME280;57132;51.972;4.450;2023-02-01T15:13:50;101880.13;;;7.47;100.00
69836;BME280;57132;51.972;4.450;2023-02-01T15:16:19;101886.19;;;7.50;100.00
69836;BME280;57132;51.972;4.450;2023-02-01T15:18:45;101880.88;;;7.50;100.00
69836;BME280;57132;51.972;4.450;2023-02-01T15:21:21;101884.34;;;7.52;100.00
69836;BME280;57132;51.972;4.450;2023-02-01T15:23:47;101890.56;;;7.51;100.00
69836;BME280;57132;51.972;4.450;2023-02-01T15:26:28;101890.56;;;7.51;100.00
69836;BME280;57132;51.972;4.450;2023-02-01T15:28:53;101884.41;;;7.51;100.00
69836;BME280;57132;51.972;4.450;2023-02-01T15:31:36;101888.00;;;7.50;100.00
69836;BME280;57132;51.972;4.450;2023-02-01T15:34:02;101892.31;;;7.52;100.00
69836;BME280;57132;51.972;4.450;2023-02-01T15:36:28;101890.44;;;7.54;100.00